sensor_id;sensor_type;location;lat;lon;timestamp;pressure;altitude;pressure_sealevel;temperature;humidity
52137;BME280;69622;49.570;10.986;2024-03-06T00:01:56;98384.13;;;7.13;100.00
52137;BME280;69622;49.570;10.986;2024-03-06T00:04:57;98386.88;;;7.24;100.00
52137;BME280;69622;49.570;10.986;2024-03-06T00:07:59;98396.03;;;7.30;100.00
52137;BME280;69622;49.570;10.986;2024-03-06T00:11:03;98395.09;;;7.31;100.00
52137;BME280;69622;49.570;10.986;2024-03-06T00:14:04;98398.41;;;7.33;100.00
52137;BME280;69622;49.570;10.986;2024-03-06T00:17:06;98396.03;;;7.30;100.00
52137;BME280;69622;49.570;10.986;2024-03-06T00:20:09;98406.47;;;7.28;100.00
52137;BME280;69622;49.570;10.986;2024-03-06T00:23:12;98407.94;;;7.32;100.00
52137;BME280;69622;49.570;10.986;2024-03-06T00:26:14;98410.22;;;7.37;100.00
52137;BME280;69622;49.570;10.986;2024-03-06T00:29:15;98408.66;;;7.34;100.00
52137;BME280;69622;49.570;10.986;2024-03-06T00:32:17;98415.31;;;7.38;100.00
52137;BME280;69622;49.570;10.986;2024-03-06T00:35:18;98420.78;;;7.34;100.00
52137;BME280;69622;49.570;10.986;2024-03-06T00:38:20;98426.59;;;7.37;100.00
52137;BME280;69622;49.570;10.986;2024-03-06T00:41:22;98432.97;;;7.32;100.00
52137;BME280;69622;49.570;10.986;2024-03-06T00:44:24;98432.03;;;7.33;100.00
52137;BME280;69622;49.570;10.986;2024-03-06T00:47:26;98442.50;;;7.31;100.00
52137;BME280;69622;49.570;10.986;2024-03-06T00:50:28;98441.66;;;7.31;100.00
52137;BME280;69622;49.570;10.986;2024-03-06T00:53:30;98448.59;;;7.30;100.00
52137;BME280;69622;49.570;10.986;2024-03-06T00:56:31;98448.41;;;7.33;100.00
52137;BME280;69622;49.570;10.986;2024-03-06T00:59:33;98442.50;;;7.31;100.00
52137;BME280;69622;49.570;10.986;2024-03-06T01:02:34;98445.16;;;7.30;100.00
52137;BME280;69622;49.570;10.986;2024-03-06T01:05:36;98454.50;;;7.32;100.00
52137;BME280;69622;49.570;10.986;2024-03-06T01:08:37;98455.50;;;7.30;100.00
52137;BME280;69622;49.570;10.986;2024-03-06T01:11:39;98455.41;;;7.31;100.00
52137;BME280;69622;49.570;10.986;2024-03-06T01:14:40;98453.47;;;7.35;100.00
52137;BME280;69622;49.570;10.986;2024-03-06T01:17:44;98446.00;;;7.30;100.00
52137;BME280;69622;49.570;10.986;2024-03-06T01:20:45;98445.25;;;7.28;100.00
52137;BME280;69622;49.570;10.986;2024-03-06T01:23:46;98444.06;;;7.34;100.00
52137;BME280;69622;49.570;10.986;2024-03-06T01:26:48;98442.28;;;7.34;100.00
52137;BME280;69622;49.570;10.986;2024-03-06T01:29:49;98438.97;;;7.32;100.00
52137;BME280;69622;49.570;10.986;2024-03-06T01:32:51;98439.59;;;7.21;100.00
52137;BME280;69622;49.570;10.986;2024-03-06T01:35:52;98437.34;;;6.87;100.00
52137;BME280;69622;49.570;10.986;2024-03-06T01:38:54;98434.63;;;7.04;100.00
52137;BME280;69622;49.570;10.986;2024-03-06T01:41:55;98441.25;;;7.08;100.00
52137;BME280;69622;49.570;10.986;2024-03-06T01:44:57;98428.59;;;7.04;100.00
52137;BME280;69622;49.570;10.986;2024-03-06T01:47:58;98435.53;;;7.03;100.00
52137;BME280;69622;49.570;10.986;2024-03-06T01:51:02;98435.00;;;6.98;100.00
52137;BME280;69622;49.570;10.986;2024-03-06T01:54:04;98438.31;;;7.14;100.00
52137;BME280;69622;49.570;10.986;2024-03-06T01:57:06;98442.28;;;7.06;100.00
52137;BME280;69622;49.570;10.986;2024-03-06T02:00:09;98443.94;;;7.07;100.00
52137;BME280;69622;49.570;10.986;2024-03-06T02:03:15;98448.91;;;7.10;100.00
52137;BME280;69622;49.570;10.986;2024-03-06T02:06:16;98448.91;;;7.10;100.00
52137;BME280;69622;49.570;10.986;2024-03-06T02:09:21;98444.75;;;7.07;100.00
52137;BME280;69622;49.570;10.986;2024-03-06T02:12:22;98439.31;;;6.98;100.00
52137;BME280;69622;49.570;10.986;2024-03-06T02:15:24;98437.38;;;6.57;100.00
52137;BME280;69622;49.570;10.986;2024-03-06T02:18:25;98437.28;;;6.58;100.00
52137;BME280;69622;49.570;10.986;2024-03-06T02:21:27;98437.06;;;6.77;100.00
52137;BME280;69622;49.570;10.986;2024-03-06T02:24:28;98440.78;;;6.87;100.00
52137;BME280;69622;49.570;10.986;2024-03-06T02:27:30;98433.31;;;6.83;100.00
52137;BME280;69622;49.570;10.986;2024-03-06T02:30:32;98431.19;;;6.89;100.00
52137;BME280;69622;49.570;10.986;2024-03-06T02:33:38;98430.91;;;6.80;100.00
52137;BME280;69622;49.570;10.986;2024-03-06T02:36:40;98433.22;;;6.84;100.00
52137;BME280;69622;49.570;10.986;2024-03-06T02:39:42;98420.00;;;6.89;100.00
52137;BME280;69622;49.570;10.986;2024-03-06T02:42:43;98422.25;;;6.95;100.00
52137;BME280;69622;49.570;10.986;2024-03-06T02:45:45;98424.66;;;6.98;100.00
52137;BME280;69622;49.570;10.986;2024-03-06T02:48:46;98422.66;;;6.73;100.00
52137;BME280;69622;49.570;10.986;2024-03-06T02:51:48;98431.53;;;6.83;100.00
52137;BME280;69622;49.570;10.986;2024-03-06T02:54:49;98428.88;;;6.85;100.00
52137;BME280;69622;49.570;10.986;2024-03-06T02:57:51;98421.75;;;6.88;100.00
52137;BME280;69622;49.570;10.986;2024-03-06T03:00:52;98420.91;;;6.74;100.00
52137;BME280;69622;49.570;10.986;2024-03-06T03:03:54;98419.78;;;6.34;100.00
52137;BME280;69622;49.570;10.986;2024-03-06T03:06:55;98425.47;;;6.54;100.00
52137;BME280;69622;49.570;10.986;2024-03-06T03:09:56;98430.59;;;6.70;100.00
52137;BME280;69622;49.570;10.986;2024-03-06T03:12:58;98429.66;;;6.71;100.00
52137;BME280;69622;49.570;10.986;2024-03-06T03:15:59;98424.56;;;6.55;100.00
52137;BME280;69622;49.570;10.986;2024-03-06T03:19:01;98424.00;;;6.50;100.00
52137;BME280;69622;49.570;10.986;2024-03-06T03:22:03;98427.59;;;6.62;100.00
52137;BME280;69622;49.570;10.986;2024-03-06T03:25:12;98425.28;;;6.57;100.00
52137;BME280;69622;49.570;10.986;2024-03-06T03:28:14;98423.66;;;5.95;100.00
52137;BME280;69622;49.570;10.986;2024-03-06T03:31:16;98422.41;;;6.02;100.00
52137;BME280;69622;49.570;10.986;2024-03-06T03:34:17;98430.38;;;5.82;100.00
52137;BME280;69622;49.570;10.986;2024-03-06T03:37:19;98426.13;;;5.81;100.00
52137;BME280;69622;49.570;10.986;2024-03-06T03:40:21;98434.63;;;5.98;100.00
52137;BME280;69622;49.570;10.986;2024-03-06T03:43:23;98435.63;;;6.12;100.00
52137;BME280;69622;49.570;10.986;2024-03-06T03:46:24;98439.03;;;6.28;100.00
52137;BME280;69622;49.570;10.986;2024-03-06T03:49:26;98445.34;;;6.38;100.00
52137;BME280;69622;49.570;10.986;2024-03-06T03:52:28;98447.09;;;6.38;100.00
52137;BME280;69622;49.570;10.986;2024-03-06T03:55:30;98445.09;;;6.43;100.00
52137;BME280;69622;49.570;10.986;2024-03-06T03:58:31;98435.56;;;6.43;100.00
52137;BME280;69622;49.570;10.986;2024-03-06T04:01:33;98440.56;;;6.46;100.00
52137;BME280;69622;49.570;10.986;2024-03-06T04:04:35;98446.41;;;6.50;100.00
52137;BME280;69622;49.570;10.986;2024-03-06T04:07:36;98441.91;;;6.53;100.00
52137;BME280;69622;49.570;10.986;2024-03-06T04:10:38;98448.81;;;6.53;100.00
52137;BME280;69622;49.570;10.986;2024-03-06T04:13:42;98449.38;;;6.58;100.00
52137;BME280;69622;49.570;10.986;2024-03-06T04:16:45;98457.97;;;6.58;100.00
52137;BME280;69622;49.570;10.986;2024-03-06T04:19:47;98461.72;;;6.07;100.00
52137;BME280;69622;49.570;10.986;2024-03-06T04:22:49;98452.72;;;5.98;100.00
52137;BME280;69622;49.570;10.986;2024-03-06T04:25:52;98458.31;;;6.07;100.00
52137;BME280;69622;49.570;10.986;2024-03-06T04:28:54;98465.59;;;6.14;100.00
52137;BME280;69622;49.570;10.986;2024-03-06T04:31:55;98465.53;;;6.32;100.00
52137;BME280;69622;49.570;10.986;2024-03-06T04:34:57;98470.69;;;6.32;100.00
52137;BME280;69622;49.570;10.986;2024-03-06T04:37:59;98479.13;;;6.04;100.00
52137;BME280;69622;49.570;10.986;2024-03-06T04:41:05;98477.53;;;6.17;100.00
52137;BME280;69622;49.570;10.986;2024-03-06T04:44:07;98477.00;;;6.26;100.00
52137;BME280;69622;49.570;10.986;2024-03-06T04:47:09;98476.28;;;6.24;100.00
52137;BME280;69622;49.570;10.986;2024-03-06T04:50:11;98481.16;;;6.28;100.00
52137;BME280;69622;49.570;10.986;2024-03-06T04:53:13;98476.00;;;6.28;100.00
52137;BME280;69622;49.570;10.986;2024-03-06T04:56:15;98476.72;;;6.16;100.00
52137;BME280;69622;49.570;10.986;2024-03-06T04:59:20;98486.19;;;6.32;100.00
52137;BME280;69622;49.570;10.986;2024-03-06T05:02:22;98484.19;;;6.21;100.00
52137;BME280;69622;49.570;10.986;2024-03-06T05:05:24;98489.25;;;6.38;100.00
52137;BME280;69622;49.570;10.986;2024-03-06T05:08:44;98499.09;;;6.47;100.00
52137;BME280;69622;49.570;10.986;2024-03-06T05:12:02;98501.72;;;6.46;100.00
52137;BME280;69622;49.570;10.986;2024-03-06T05:15:21;98502.31;;;6.51;100.00
52137;BME280;69622;49.570;10.986;2024-03-06T05:18:41;98505.09;;;6.48;100.00
52137;BME280;69622;49.570;10.986;2024-03-06T05:22:00;98505.00;;;6.34;100.00
52137;BME280;69622;49.570;10.986;2024-03-06T05:25:19;98513.16;;;6.26;100.00
52137;BME280;69622;49.570;10.986;2024-03-06T05:28:38;98514.00;;;6.26;100.00
52137;BME280;69622;49.570;10.986;2024-03-06T05:31:58;98508.25;;;6.21;100.00
52137;BME280;69622;49.570;10.986;2024-03-06T05:35:17;98506.59;;;6.36;100.00
52137;BME280;69622;49.570;10.986;2024-03-06T05:38:36;98519.06;;;6.28;100.00
52137;BME280;69622;49.570;10.986;2024-03-06T05:42:00;98514.84;;;6.11;100.00
52137;BME280;69622;49.570;10.986;2024-03-06T05:45:19;98513.56;;;5.87;100.00
52137;BME280;69622;49.570;10.986;2024-03-06T05:48:38;98513.69;;;5.84;100.00
52137;BME280;69622;49.570;10.986;2024-03-06T05:51:56;98509.94;;;6.07;100.00
52137;BME280;69622;49.570;10.986;2024-03-06T05:55:16;98510.75;;;5.91;100.00
52137;BME280;69622;49.570;10.986;2024-03-06T05:58:34;98508.56;;;6.15;100.00
52137;BME280;69622;49.570;10.986;2024-03-06T06:01:36;98522.75;;;6.08;100.00
52137;BME280;69622;49.570;10.986;2024-03-06T06:04:37;98530.59;;;6.22;100.00
52137;BME280;69622;49.570;10.986;2024-03-06T06:07:51;98533.50;;;6.32;100.00
52137;BME280;69622;49.570;10.986;2024-03-06T06:10:53;98540.34;;;6.33;100.00
52137;BME280;69622;49.570;10.986;2024-03-06T06:13:56;98540.47;;;6.30;100.00
52137;BME280;69622;49.570;10.986;2024-03-06T06:16:57;98547.16;;;6.18;100.00
52137;BME280;69622;49.570;10.986;2024-03-06T06:19:59;98549.84;;;6.33;100.00
52137;BME280;69622;49.570;10.986;2024-03-06T06:23:01;98553.81;;;6.38;100.00
52137;BME280;69622;49.570;10.986;2024-03-06T06:26:02;98555.00;;;6.17;100.00
52137;BME280;69622;49.570;10.986;2024-03-06T06:29:04;98563.97;;;6.10;100.00
52137;BME280;69622;49.570;10.986;2024-03-06T06:32:06;98568.81;;;6.16;100.00
52137;BME280;69622;49.570;10.986;2024-03-06T06:35:08;98569.28;;;5.91;100.00
52137;BME280;69622;49.570;10.986;2024-03-06T06:38:11;98574.88;;;5.82;100.00
52137;BME280;69622;49.570;10.986;2024-03-06T06:41:13;98577.88;;;6.07;100.00
52137;BME280;69622;49.570;10.986;2024-03-06T06:44:15;98581.09;;;5.95;100.00
52137;BME280;69622;49.570;10.986;2024-03-06T06:47:17;98588.03;;;6.10;100.00
52137;BME280;69622;49.570;10.986;2024-03-06T06:50:19;98601.41;;;6.34;100.00
52137;BME280;69622;49.570;10.986;2024-03-06T06:53:24;98596.72;;;6.41;100.00
52137;BME280;69622;49.570;10.986;2024-03-06T06:56:25;98602.06;;;6.53;100.00
52137;BME280;69622;49.570;10.986;2024-03-06T06:59:27;98600.31;;;6.54;100.00
52137;BME280;69622;49.570;10.986;2024-03-06T07:02:29;98605.88;;;6.46;100.00
52137;BME280;69622;49.570;10.986;2024-03-06T07:05:31;98602.53;;;6.28;100.00
52137;BME280;69622;49.570;10.986;2024-03-06T07:08:33;98604.72;;;6.52;100.00
52137;BME280;69622;49.570;10.986;2024-03-06T07:11:34;98610.72;;;6.52;100.00
52137;BME280;69622;49.570;10.986;2024-03-06T07:14:36;98608.47;;;6.62;100.00
52137;BME280;69622;49.570;10.986;2024-03-06T07:17:38;98613.78;;;6.43;100.00
52137;BME280;69622;49.570;10.986;2024-03-06T07:20:40;98611.56;;;6.69;100.00
52137;BME280;69622;49.570;10.986;2024-03-06T07:23:42;98621.91;;;6.53;100.00
52137;BME280;69622;49.570;10.986;2024-03-06T07:26:44;98622.72;;;6.38;100.00
52137;BME280;69622;49.570;10.986;2024-03-06T07:29:45;98622.63;;;6.55;100.00
52137;BME280;69622;49.570;10.986;2024-03-06T07:32:47;98616.28;;;6.60;100.00
52137;BME280;69622;49.570;10.986;2024-03-06T07:35:48;98623.56;;;6.38;100.00
52137;BME280;69622;49.570;10.986;2024-03-06T07:38:50;98634.97;;;6.50;100.00
52137;BME280;69622;49.570;10.986;2024-03-06T07:41:52;98625.41;;;6.52;100.00
52137;BME280;69622;49.570;10.986;2024-03-06T07:44:53;98632.53;;;6.47;100.00
52137;BME280;69622;49.570;10.986;2024-03-06T07:47:55;98637.06;;;6.59;100.00
52137;BME280;69622;49.570;10.986;2024-03-06T07:50:56;98635.13;;;6.63;100.00
52137;BME280;69622;49.570;10.986;2024-03-06T07:53:58;98643.97;;;6.58;100.00
52137;BME280;69622;49.570;10.986;2024-03-06T07:57:00;98647.22;;;6.78;100.00
52137;BME280;69622;49.570;10.986;2024-03-06T08:00:02;98647.47;;;6.73;100.00
52137;BME280;69622;49.570;10.986;2024-03-06T08:03:09;98648.56;;;6.85;100.00
52137;BME280;69622;49.570;10.986;2024-03-06T08:06:12;98643.75;;;6.79;100.00
52137;BME280;69622;49.570;10.986;2024-03-06T08:09:17;98659.25;;;6.79;100.00
52137;BME280;69622;49.570;10.986;2024-03-06T08:12:18;98659.97;;;6.97;100.00
52137;BME280;69622;49.570;10.986;2024-03-06T08:15:20;98654.28;;;7.06;100.00
52137;BME280;69622;49.570;10.986;2024-03-06T08:18:23;98657.47;;;6.95;100.00
52137;BME280;69622;49.570;10.986;2024-03-06T08:21:24;98657.63;;;7.38;100.00
52137;BME280;69622;49.570;10.986;2024-03-06T08:24:25;98659.38;;;7.07;100.00
52137;BME280;69622;49.570;10.986;2024-03-06T08:27:27;98664.16;;;6.99;100.00
52137;BME280;69622;49.570;10.986;2024-03-06T08:30:29;98663.63;;;7.08;100.00
52137;BME280;69622;49.570;10.986;2024-03-06T08:33:31;98665.03;;;7.30;100.00
52137;BME280;69622;49.570;10.986;2024-03-06T08:36:33;98666.81;;;7.13;100.00
52137;BME280;69622;49.570;10.986;2024-03-06T08:39:35;98667.81;;;7.11;100.00
52137;BME280;69622;49.570;10.986;2024-03-06T08:42:36;98667.38;;;7.48;100.00
52137;BME280;69622;49.570;10.986;2024-03-06T08:45:38;98667.38;;;7.48;100.00
52137;BME280;69622;49.570;10.986;2024-03-06T08:48:40;98671.81;;;7.76;100.00
52137;BME280;69622;49.570;10.986;2024-03-06T08:51:41;98667.19;;;7.51;100.00
52137;BME280;69622;49.570;10.986;2024-03-06T08:54:43;98672.59;;;7.63;100.00
52137;BME280;69622;49.570;10.986;2024-03-06T08:57:44;98671.16;;;7.43;100.00
52137;BME280;69622;49.570;10.986;2024-03-06T09:00:46;98664.94;;;7.61;100.00
52137;BME280;69622;49.570;10.986;2024-03-06T09:03:49;98673.84;;;7.86;100.00
52137;BME280;69622;49.570;10.986;2024-03-06T09:06:51;98657.88;;;8.07;100.00
52137;BME280;69622;49.570;10.986;2024-03-06T09:09:52;98658.19;;;7.73;100.00
52137;BME280;69622;49.570;10.986;2024-03-06T09:12:54;98662.84;;;7.52;100.00
52137;BME280;69622;49.570;10.986;2024-03-06T09:15:55;98669.50;;;7.86;100.00
52137;BME280;69622;49.570;10.986;2024-03-06T09:18:57;98680.34;;;7.93;100.00
52137;BME280;69622;49.570;10.986;2024-03-06T09:21:59;98676.09;;;7.92;100.00
52137;BME280;69622;49.570;10.986;2024-03-06T09:25:00;98683.72;;;7.79;100.00
52137;BME280;69622;49.570;10.986;2024-03-06T09:28:02;98688.22;;;7.61;100.00
52137;BME280;69622;49.570;10.986;2024-03-06T09:31:06;98683.28;;;8.01;100.00
52137;BME280;69622;49.570;10.986;2024-03-06T09:34:08;98681.81;;;7.97;100.00
52137;BME280;69622;49.570;10.986;2024-03-06T09:37:12;98688.97;;;8.07;100.00
52137;BME280;69622;49.570;10.986;2024-03-06T09:40:22;98685.44;;;8.08;100.00
52137;BME280;69622;49.570;10.986;2024-03-06T09:43:24;98675.06;;;7.94;100.00
52137;BME280;69622;49.570;10.986;2024-03-06T09:46:27;98679.25;;;8.11;100.00
52137;BME280;69622;49.570;10.986;2024-03-06T09:49:29;98681.41;;;8.47;100.00
52137;BME280;69622;49.570;10.986;2024-03-06T09:52:32;98677.53;;;8.40;100.00
52137;BME280;69622;49.570;10.986;2024-03-06T09:55:36;98678.34;;;8.55;100.00
52137;BME280;69622;49.570;10.986;2024-03-06T09:58:38;98680.56;;;8.61;100.00
52137;BME280;69622;49.570;10.986;2024-03-06T10:01:55;98676.09;;;8.63;100.00
52137;BME280;69622;49.570;10.986;2024-03-06T10:04:58;98685.78;;;8.88;100.00
52137;BME280;69622;49.570;10.986;2024-03-06T10:08:03;98682.28;;;8.89;100.00
52137;BME280;69622;49.570;10.986;2024-03-06T10:11:07;98681.25;;;8.91;100.00
52137;BME280;69622;49.570;10.986;2024-03-06T10:14:09;98683.03;;;8.77;100.00
52137;BME280;69622;49.570;10.986;2024-03-06T10:17:19;98675.03;;;9.21;100.00
52137;BME280;69622;49.570;10.986;2024-03-06T10:20:22;98674.63;;;9.27;100.00
52137;BME280;69622;49.570;10.986;2024-03-06T10:23:24;98683.06;;;9.04;100.00
52137;BME280;69622;49.570;10.986;2024-03-06T10:26:30;98676.13;;;9.04;100.00
52137;BME280;69622;49.570;10.986;2024-03-06T10:29:32;98669.59;;;9.11;100.00
52137;BME280;69622;49.570;10.986;2024-03-06T10:32:33;98685.06;;;9.40;100.00
52137;BME280;69622;49.570;10.986;2024-03-06T10:35:36;98678.94;;;9.41;100.00
52137;BME280;69622;49.570;10.986;2024-03-06T10:38:43;98671.03;;;9.42;100.00
52137;BME280;69622;49.570;10.986;2024-03-06T10:41:46;98675.63;;;9.12;100.00
52137;BME280;69622;49.570;10.986;2024-03-06T10:44:55;98675.56;;;9.26;100.00
52137;BME280;69622;49.570;10.986;2024-03-06T10:47:58;98675.56;;;9.66;100.00
52137;BME280;69622;49.570;10.986;2024-03-06T10:51:05;98677.09;;;9.55;100.00
52137;BME280;69622;49.570;10.986;2024-03-06T10:54:08;98680.38;;;9.32;100.00
52137;BME280;69622;49.570;10.986;2024-03-06T10:57:11;98685.81;;;9.54;100.00
52137;BME280;69622;49.570;10.986;2024-03-06T11:00:13;98680.75;;;9.53;100.00
52137;BME280;69622;49.570;10.986;2024-03-06T11:03:20;98677.53;;;9.49;100.00
52137;BME280;69622;49.570;10.986;2024-03-06T11:06:21;98684.19;;;9.66;100.00
52137;BME280;69622;49.570;10.986;2024-03-06T11:09:23;98684.06;;;9.55;100.00
52137;BME280;69622;49.570;10.986;2024-03-06T11:12:38;98690.28;;;9.52;100.00
52137;BME280;69622;49.570;10.986;2024-03-06T11:15:40;98691.38;;;9.36;100.00
52137;BME280;69622;49.570;10.986;2024-03-06T11:18:42;98690.88;;;9.43;100.00
52137;BME280;69622;49.570;10.986;2024-03-06T11:21:47;98694.38;;;9.69;100.00
52137;BME280;69622;49.570;10.986;2024-03-06T11:24:50;98691.06;;;9.67;100.00
52137;BME280;69622;49.570;10.986;2024-03-06T11:28:04;98689.06;;;9.71;100.00
52137;BME280;69622;49.570;10.986;2024-03-06T11:31:07;98692.09;;;9.77;100.00
52137;BME280;69622;49.570;10.986;2024-03-06T11:34:22;98693.84;;;9.64;100.00
52137;BME280;69622;49.570;10.986;2024-03-06T11:37:23;98689.81;;;9.73;100.00
52137;BME280;69622;49.570;10.986;2024-03-06T11:40:26;98688.38;;;9.81;100.00
52137;BME280;69622;49.570;10.986;2024-03-06T11:43:28;98686.66;;;9.55;100.00
52137;BME280;69622;49.570;10.986;2024-03-06T11:46:43;98689.78;;;9.60;100.00
52137;BME280;69622;49.570;10.986;2024-03-06T11:49:45;98690.00;;;9.70;100.00
52137;BME280;69622;49.570;10.986;2024-03-06T11:52:47;98692.25;;;9.61;100.00
52137;BME280;69622;49.570;10.986;2024-03-06T11:55:48;98689.88;;;9.58;100.00
52137;BME280;69622;49.570;10.986;2024-03-06T11:58:50;98693.13;;;9.75;100.00
52137;BME280;69622;49.570;10.986;2024-03-06T12:01:55;98693.88;;;9.37;100.00
52137;BME280;69622;49.570;10.986;2024-03-06T12:05:02;98688.69;;;9.37;100.00
52137;BME280;69622;49.570;10.986;2024-03-06T12:08:06;98689.78;;;9.20;100.00
52137;BME280;69622;49.570;10.986;2024-03-06T12:11:09;98702.38;;;9.12;100.00
52137;BME280;69622;49.570;10.986;2024-03-06T12:14:17;98695.84;;;9.34;100.00
52137;BME280;69622;49.570;10.986;2024-03-06T12:17:19;98700.88;;;9.22;100.00
52137;BME280;69622;49.570;10.986;2024-03-06T12:20:21;98695.19;;;9.30;100.00
52137;BME280;69622;49.570;10.986;2024-03-06T12:23:23;98693.81;;;9.24;100.00
52137;BME280;69622;49.570;10.986;2024-03-06T12:26:27;98690.78;;;9.45;100.00
52137;BME280;69622;49.570;10.986;2024-03-06T12:29:30;98692.84;;;9.40;100.00
52137;BME280;69622;49.570;10.986;2024-03-06T12:32:33;98693.56;;;9.42;100.00
52137;BME280;69622;49.570;10.986;2024-03-06T12:35:37;98696.63;;;9.48;100.00
52137;BME280;69622;49.570;10.986;2024-03-06T12:38:39;98686.66;;;9.55;100.00
52137;BME280;69622;49.570;10.986;2024-03-06T12:41:40;98687.63;;;9.67;100.00
52137;BME280;69622;49.570;10.986;2024-03-06T12:44:42;98681.88;;;9.61;100.00
52137;BME280;69622;49.570;10.986;2024-03-06T12:47:45;98684.19;;;9.66;100.00
52137;BME280;69622;49.570;10.986;2024-03-06T12:50:49;98679.59;;;9.57;100.00
52137;BME280;69622;49.570;10.986;2024-03-06T12:53:53;98678.91;;;9.68;100.00
52137;BME280;69622;49.570;10.986;2024-03-06T12:56:54;98681.53;;;9.80;100.00
52137;BME280;69622;49.570;10.986;2024-03-06T12:59:56;98681.63;;;9.79;100.00
52137;BME280;69622;49.570;10.986;2024-03-06T13:02:58;98683.28;;;9.93;100.00
52137;BME280;69622;49.570;10.986;2024-03-06T13:05:59;98683.00;;;10.23;100.00
52137;BME280;69622;49.570;10.986;2024-03-06T13:09:01;98679.03;;;10.04;100.00
52137;BME280;69622;49.570;10.986;2024-03-06T13:12:02;98677.88;;;10.08;100.00
52137;BME280;69622;49.570;10.986;2024-03-06T13:15:05;98671.25;;;10.04;100.00
52137;BME280;69622;49.570;10.986;2024-03-06T13:18:08;98672.50;;;10.11;100.00
52137;BME280;69622;49.570;10.986;2024-03-06T13:21:10;98674.06;;;10.14;100.00
52137;BME280;69622;49.570;10.986;2024-03-06T13:24:11;98671.44;;;10.39;100.00
52137;BME280;69622;49.570;10.986;2024-03-06T13:27:13;98674.59;;;10.44;100.00
52137;BME280;69622;49.570;10.986;2024-03-06T13:30:14;98673.44;;;10.36;100.00
52137;BME280;69622;49.570;10.986;2024-03-06T13:33:16;98676.88;;;10.24;100.00
52137;BME280;69622;49.570;10.986;2024-03-06T13:36:18;98685.94;;;10.43;100.00
52137;BME280;69622;49.570;10.986;2024-03-06T13:39:19;98679.97;;;10.16;100.00
52137;BME280;69622;49.570;10.986;2024-03-06T13:42:21;98674.88;;;10.14;100.00
52137;BME280;69622;49.570;10.986;2024-03-06T13:45:22;98676.25;;;10.45;100.00
52137;BME280;69622;49.570;10.986;2024-03-06T13:48:24;98676.47;;;10.42;100.00
52137;BME280;69622;49.570;10.986;2024-03-06T13:51:25;98669.78;;;10.00;100.00
52137;BME280;69622;49.570;10.986;2024-03-06T13:54:27;98678.84;;;10.45;100.00
52137;BME280;69622;49.570;10.986;2024-03-06T13:57:28;98669.97;;;10.61;100.00
52137;BME280;69622;49.570;10.986;2024-03-06T14:00:30;98675.69;;;10.66;100.00
52137;BME280;69622;49.570;10.986;2024-03-06T14:03:31;98675.66;;;11.02;100.00
52137;BME280;69622;49.570;10.986;2024-03-06T14:06:35;98681.34;;;10.47;100.00
52137;BME280;69622;49.570;10.986;2024-03-06T14:09:37;98687.25;;;10.62;100.00
52137;BME280;69622;49.570;10.986;2024-03-06T14:12:38;98671.16;;;10.80;100.00
52137;BME280;69622;49.570;10.986;2024-03-06T14:15:41;98685.69;;;10.59;100.00
52137;BME280;69622;49.570;10.986;2024-03-06T14:18:42;98682.03;;;10.62;100.00
52137;BME280;69622;49.570;10.986;2024-03-06T14:21:44;98681.50;;;10.69;100.00
52137;BME280;69622;49.570;10.986;2024-03-06T14:24:45;98686.19;;;10.64;100.00
52137;BME280;69622;49.570;10.986;2024-03-06T14:27:47;98681.63;;;10.55;100.00
52137;BME280;69622;49.570;10.986;2024-03-06T14:30:49;98681.00;;;10.64;100.00
52137;BME280;69622;49.570;10.986;2024-03-06T14:33:50;98683.69;;;10.63;100.00
52137;BME280;69622;49.570;10.986;2024-03-06T14:36:51;98683.69;;;10.63;100.00
52137;BME280;69622;49.570;10.986;2024-03-06T14:39:53;98686.31;;;10.37;100.00
52137;BME280;69622;49.570;10.986;2024-03-06T14:42:54;98683.38;;;10.55;100.00
52137;BME280;69622;49.570;10.986;2024-03-06T14:45:56;98681.56;;;10.31;100.00
52137;BME280;69622;49.570;10.986;2024-03-06T14:48:58;98686.53;;;10.60;100.00
52137;BME280;69622;49.570;10.986;2024-03-06T14:51:59;98685.28;;;10.53;100.00
52137;BME280;69622;49.570;10.986;2024-03-06T14:55:00;98682.44;;;10.68;100.00
52137;BME280;69622;49.570;10.986;2024-03-06T14:58:02;98681.66;;;10.42;100.00
52137;BME280;69622;49.570;10.986;2024-03-06T15:01:04;98687.47;;;10.46;100.00
52137;BME280;69622;49.570;10.986;2024-03-06T15:04:05;98684.91;;;10.83;100.00
52137;BME280;69622;49.570;10.986;2024-03-06T15:07:07;98680.75;;;10.80;100.00
52137;BME280;69622;49.570;10.986;2024-03-06T15:10:09;98689.53;;;10.41;100.00
52137;BME280;69622;49.570;10.986;2024-03-06T15:13:10;98689.88;;;10.36;100.00
52137;BME280;69622;49.570;10.986;2024-03-06T15:16:14;98687.88;;;10.14;100.00
52137;BME280;69622;49.570;10.986;2024-03-06T15:19:16;98689.25;;;10.33;100.00
52137;BME280;69622;49.570;10.986;2024-03-06T15:22:18;98685.38;;;10.00;100.00
52137;BME280;69622;49.570;10.986;2024-03-06T15:25:20;98696.09;;;9.96;100.00
52137;BME280;69622;49.570;10.986;2024-03-06T15:28:21;98690.25;;;9.92;100.00
52137;BME280;69622;49.570;10.986;2024-03-06T15:31:23;98697.00;;;10.07;100.00
52137;BME280;69622;49.570;10.986;2024-03-06T15:34:25;98691.69;;;9.83;100.00
52137;BME280;69622;49.570;10.986;2024-03-06T15:37:26;98692.13;;;10.03;100.00
52137;BME280;69622;49.570;10.986;2024-03-06T15:40:28;98691.81;;;9.82;100.00
52137;BME280;69622;49.570;10.986;2024-03-06T15:43:29;98694.31;;;10.09;100.00
52137;BME280;69622;49.570;10.986;2024-03-06T15:46:30;98694.59;;;9.91;100.00
52137;BME280;69622;49.570;10.986;2024-03-06T15:49:34;98696.50;;;10.15;100.00
52137;BME280;69622;49.570;10.986;2024-03-06T15:52:37;98695.28;;;10.33;100.00
52137;BME280;69622;49.570;10.986;2024-03-06T15:55:39;98694.56;;;10.31;100.00